INLO2: Newt Graham Lock And Dam (L&D 18)

Data processed at Fri May 24 2019 23:50


All information presented herein is the property of the government of the United States of America and may be revised or deleted at any time without prior notice.
Dissemination of this information without the expressed written consent of the Public Affairs Office, Tulsa District U.S. Army Corps of Engineers is strictly prohibited.
These data are gathered electronically and, as presented, have not undergone any form of quality control. These data are not guaranteed to be valid or correct.
Go to home page.
Go to station list.
Go to home page.

Upstream stations:

Downstream station:
Previous Day
Next Day
Current Day
    
SHEF ID:       INLO2     Newt Graham LD18
STATION TYPE:  NAVIGATION LOCK
Navigation Pool:  Bottom =   532.00, Top =   532.50

               PRECIP ELEVATION   STORAGE   TW-ELEV LOCK-ELEV    INFLOW   RELEASE    GATE-1    GATE-2    GATE-3  AIR-TEMP  WIND-DIRWIND-SPEED REL-HUMID SOLAR-RAD   VOLTAGE  BAT-LOAD
                   in        ft     ac-ft        ft        ft       cfs       cfs        ft        ft        ft         F       deg       mph         %      W/m2      volt      volt
              Ccp-Rev   Ccp-Rev   Ccp-Rev   Ccp-Rev   Ccp-Rev  Rev-Regi  Rev-Regi   Ccp-Rev   Ccp-Rev   Ccp-Rev   Ccp-Rev   Ccp-Rev   Ccp-Rev   Ccp-Rev   Ccp-Rev   Ccp-Rev   Ccp-Rev
(US/Central)
05/24 00:00      0.00    540.70     38676    534.80      ----     84862     83000      ----      ----      ----     75.61    149.50      4.70     75.06      0.00     12.68     12.41
05/24 01:00      0.00    540.76     38801    535.00      ----     85114     83000      ----      ----      ----     75.13    155.50      5.10     76.42      0.00     12.67     12.41
05/24 02:00      0.00    540.80     38884    535.01      ----     84460     83000      ----      ----      ----     74.25    163.80      2.90     79.33      0.00     12.67     12.41
05/24 03:00      0.00    540.88     39050    535.26      ----     83906     83000      ----      ----      ----     72.72    166.00      2.10     83.83      0.00     12.67     12.41
05/24 04:00      0.00    540.84     38967    535.29      ----     84057     83000      ----      ----      ----     72.81    163.90      3.80     84.49      0.00     12.67     12.41
05/24 05:00      0.00    540.88     39050    535.44      ----     84208     83000      ----      ----      ----     73.51    182.20      3.70     83.10      0.00     12.66     12.41
05/24 06:00      0.00    540.97     39238    535.41      ----     84007     83000      ----      ----      ----     73.72    177.60      4.00     82.17      0.00     12.66     12.41
05/24 07:00      0.00    541.04     39383    535.43      ----     84510     83000      ----      ----      ----     74.03    179.00      4.60     81.85      4.70     12.66     12.41
05/24 08:00      0.00    541.08     39466    535.64      ----     84409     83000      ----      ----      ----     75.13    167.60      7.10     79.67    129.00     12.66     12.41
05/24 09:00      0.00    541.14     39591    535.70      ----     83856     83000      ----      ----      ----     77.05    176.60      9.40     75.64    329.50     12.66     12.41
05/24 10:00      0.00    541.16     39633    535.73      ----     83654     83000      ----      ----      ----     78.67    193.20      8.50     72.89    420.90     12.66     12.41
05/24 11:00      0.00    541.14     39591    535.75      ----     83302     83000      ----      ----      ----     80.29    186.90     10.00     68.90    591.00     12.66     12.41
05/24 12:00      0.00    541.17     39654    535.91      ----     83805     83000      ----      ----      ----     81.55    181.40     10.20     66.21    731.50     12.66     12.41
05/24 13:00      0.00    541.14     39591    535.84      ----     83705     83000      ----      ----      ----     82.92    177.20     10.20     62.48    840.90     12.66     12.41
05/24 14:00      0.00    541.30     39924    536.05      ----     84007     83000      ----      ----      ----     83.88    178.20     11.30     59.34    572.10     12.66     12.41
05/24 15:00      0.00    541.30     39924    535.95      ----     84107     83000      ----      ----      ----     84.70    181.40     10.80     57.76    625.70     12.66     12.41
05/24 16:00      0.00    541.34     40007    536.01      ----     84057     83000      ----      ----      ----     84.67    165.50     13.00     57.93    584.90     12.66     12.41
05/24 17:00      0.00    541.39     40111    536.03      ----     83503     83000      ----      ----      ----     84.65    170.90     12.00     56.74    490.00     12.66     12.41
05/24 18:00      0.00    541.35     40028    536.15      ----     82446     83000      ----      ----      ----     84.34    170.00     10.60     56.79    374.90     12.66     12.41
05/24 19:00      0.00    541.40     40132    536.28      ----     83856     83000      ----      ----      ----     83.68    172.70      9.90     57.14    217.80     12.66     12.41
05/24 20:00      0.00    541.19     39695    536.11      ----     83050     83000      ----      ----      ----     81.32    177.90      6.10     62.03     31.10     12.66     12.41
05/24 21:00      0.00    541.51     40361    536.35      ----     83101     83000      ----      ----      ----     79.29    184.70      4.90     66.61      0.00     12.66     12.41
05/24 22:00      0.00    541.40     40132    536.33      ----     82295     83000      ----      ----      ----     77.99    176.10      4.20     68.69      0.00     12.66     12.41
05/24 23:00      0.00    541.37     40070    536.27      ----     83604     83000      ----      ----      ----     77.74    186.40      3.30     70.40      0.00     12.66     12.41